createdAt,value
2023-03-11T00:00:18.681Z,96527.53
2023-03-11T00:02:47.963Z,96529.44
2023-03-11T00:05:20.717Z,96524.16
2023-03-11T00:07:47.667Z,96512.22
2023-03-11T00:10:20.271Z,96514.44
2023-03-11T00:12:47.009Z,96495.00
2023-03-11T00:15:14.309Z,96494.34
2023-03-11T00:17:41.445Z,96493.25
2023-03-11T00:20:09.077Z,96494.63
2023-03-11T00:22:35.757Z,96497.97
2023-03-11T00:25:02.496Z,96484.63
2023-03-11T00:27:29.225Z,96477.78
2023-03-11T00:29:55.969Z,96460.16
2023-03-11T00:32:22.700Z,96421.31
2023-03-11T00:34:49.524Z,96355.28
2023-03-11T00:37:16.210Z,96295.09
2023-03-11T00:39:42.921Z,96287.91
2023-03-11T00:42:11.333Z,96332.69
2023-03-11T00:44:39.221Z,96349.31
2023-03-11T00:47:05.987Z,96377.84
2023-03-11T00:49:32.892Z,96387.28
2023-03-11T00:51:59.649Z,96398.00
2023-03-11T00:54:26.436Z,96400.22
2023-03-11T00:56:53.254Z,96397.88
2023-03-11T00:59:20.031Z,96393.81
2023-03-11T01:01:47.028Z,96398.69
2023-03-11T01:04:13.901Z,96383.56
2023-03-11T01:06:45.527Z,96381.31
2023-03-11T01:09:12.950Z,96383.66
2023-03-11T01:11:39.691Z,96384.88
2023-03-11T01:14:08.234Z,96388.75
2023-03-11T01:16:35.123Z,96393.31
2023-03-11T01:19:01.937Z,96387.34
2023-03-11T01:21:28.729Z,96383.88
2023-03-11T01:23:55.482Z,96376.81
2023-03-11T01:26:22.218Z,96367.25
2023-03-11T01:28:48.954Z,96365.84
2023-03-11T01:31:15.725Z,96365.00
2023-03-11T01:33:42.464Z,96366.00
2023-03-11T01:36:09.469Z,96368.63
2023-03-11T01:38:36.271Z,96388.97
2023-03-11T01:41:03.295Z,96391.25
2023-03-11T01:43:45.204Z,96373.22
2023-03-11T01:46:31.163Z,96376.81
2023-03-11T01:49:02.193Z,96356.88
2023-03-11T01:51:49.896Z,96344.28
2023-03-11T01:54:20.705Z,96325.41
2023-03-11T01:56:48.670Z,96336.09
2023-03-11T01:59:21.299Z,96320.16
2023-03-11T02:02:25.756Z,96357.31
2023-03-11T02:04:54.762Z,96370.47
2023-03-11T02:07:24.122Z,96371.66
2023-03-11T02:09:52.141Z,96370.50
2023-03-11T02:12:19.492Z,96364.13
2023-03-11T02:14:50.606Z,96360.88
2023-03-11T02:17:17.890Z,96351.19
2023-03-11T02:19:56.716Z,96358.16
2023-03-11T02:22:24.903Z,96342.19
2023-03-11T02:25:02.308Z,96357.44
2023-03-11T02:27:33.425Z,96350.09
2023-03-11T02:30:03.418Z,96362.84
2023-03-11T02:32:33.554Z,96356.19
2023-03-11T02:35:00.215Z,96365.34
2023-03-11T02:37:26.923Z,96354.25
2023-03-11T02:40:37.971Z,96379.66
2023-03-11T02:43:11.719Z,96384.34
2023-03-11T02:45:41.251Z,96369.91
2023-03-11T02:48:11.779Z,96384.28
2023-03-11T02:50:40.067Z,96373.03
2023-03-11T02:53:07.731Z,96362.28
2023-03-11T02:55:34.431Z,96361.00
2023-03-11T02:58:01.166Z,96366.44
2023-03-11T03:00:28.252Z,96366.50
2023-03-11T03:03:02.932Z,96360.69
2023-03-11T03:05:29.731Z,96371.75
2023-03-11T03:07:58.301Z,96385.09
2023-03-11T03:10:25.102Z,96389.28
2023-03-11T03:12:52.029Z,96390.81
2023-03-11T03:15:18.808Z,96394.41
2023-03-11T03:17:46.562Z,96370.81
2023-03-11T03:20:14.144Z,96405.31
2023-03-11T03:22:45.949Z,96399.81
2023-03-11T03:25:15.605Z,96396.34
2023-03-11T03:27:42.656Z,96406.84
2023-03-11T03:30:10.823Z,96398.31
2023-03-11T03:32:38.690Z,96404.00
2023-03-11T03:35:09.925Z,96404.31
2023-03-11T03:37:55.118Z,96398.84
2023-03-11T03:40:22.976Z,96395.97
2023-03-11T03:42:50.830Z,96403.31
2023-03-11T03:45:17.850Z,96402.03
2023-03-11T03:47:45.201Z,96408.84
2023-03-11T03:50:12.465Z,96404.69
2023-03-11T03:52:42.482Z,96409.09
2023-03-11T03:55:09.684Z,96400.19
2023-03-11T03:57:37.282Z,96417.63
2023-03-11T04:00:04.842Z,96420.78
2023-03-11T04:02:40.663Z,96423.94
2023-03-11T04:05:13.513Z,96417.19
2023-03-11T04:07:41.814Z,96407.75
2023-03-11T04:10:09.779Z,96402.91
2023-03-11T04:12:37.458Z,96396.63
2023-03-11T04:15:04.992Z,96401.63
2023-03-11T04:17:31.901Z,96402.38
2023-03-11T04:19:58.793Z,96411.84
2023-03-11T04:22:25.914Z,96405.66
2023-03-11T04:24:52.715Z,96397.47
2023-03-11T04:27:19.783Z,96408.38
2023-03-11T04:29:47.043Z,96403.31
2023-03-11T04:32:13.953Z,96389.16
2023-03-11T04:34:42.522Z,96404.41
2023-03-11T04:37:10.234Z,96398.09
2023-03-11T04:39:37.224Z,96398.81
2023-03-11T04:42:04.233Z,96401.78
2023-03-11T04:44:35.231Z,96398.00
2023-03-11T04:47:02.786Z,96384.50
2023-03-11T04:49:29.633Z,96402.16
2023-03-11T04:51:56.389Z,96412.91
2023-03-11T04:54:23.901Z,96411.13
2023-03-11T04:56:51.051Z,96427.31
2023-03-11T04:59:17.891Z,96422.53
2023-03-11T05:01:46.128Z,96431.66
2023-03-11T05:04:13.038Z,96418.25
2023-03-11T05:06:40.793Z,96416.41
2023-03-11T05:09:08.542Z,96407.34
2023-03-11T05:11:37.983Z,96429.03
2023-03-11T05:14:04.790Z,96435.72
2023-03-11T05:16:31.518Z,96425.47
2023-03-11T05:18:58.383Z,96431.38
2023-03-11T05:21:25.448Z,96436.13
2023-03-11T05:23:52.961Z,96437.19
2023-03-11T05:26:19.758Z,96447.09
2023-03-11T05:28:47.338Z,96459.50
2023-03-11T05:31:14.260Z,96467.34
2023-03-11T05:33:42.593Z,96487.56
2023-03-11T05:36:12.357Z,96480.84
2023-03-11T05:38:42.199Z,96491.94
2023-03-11T05:41:09.546Z,96483.84
2023-03-11T05:43:36.911Z,96480.78
2023-03-11T05:46:03.897Z,96457.97
2023-03-11T05:48:31.541Z,96482.31
2023-03-11T05:50:59.420Z,96483.41
2023-03-11T05:53:26.561Z,96493.06
2023-03-11T05:55:58.192Z,96480.31
2023-03-11T05:58:27.968Z,96474.75
2023-03-11T06:00:55.096Z,96490.66
2023-03-11T06:03:22.185Z,96487.44
2023-03-11T06:05:49.856Z,96492.22
2023-03-11T06:08:17.778Z,96492.78
2023-03-11T06:10:47.258Z,96503.78
2023-03-11T06:13:15.980Z,96506.84
2023-03-11T06:15:48.364Z,96497.06
2023-03-11T06:18:15.632Z,96500.06
2023-03-11T06:20:42.387Z,96513.44
2023-03-11T06:23:09.106Z,96521.66
2023-03-11T06:25:35.861Z,96531.00
2023-03-11T06:28:03.246Z,96526.59
2023-03-11T06:30:30.620Z,96536.84
2023-03-11T06:33:14.504Z,96551.28
2023-03-11T06:35:41.939Z,96535.31
2023-03-11T06:38:09.276Z,96544.75
2023-03-11T06:40:38.299Z,96563.97
2023-03-11T06:43:05.171Z,96568.69
2023-03-11T06:45:34.887Z,96608.16
2023-03-11T06:48:01.760Z,96614.13
2023-03-11T06:50:29.251Z,96656.53
2023-03-11T06:52:59.773Z,96707.41
2023-03-11T06:55:27.581Z,96682.50
2023-03-11T06:57:54.335Z,96713.56
2023-03-11T07:00:21.306Z,96763.94
2023-03-11T07:02:53.645Z,96773.53
2023-03-11T07:05:21.138Z,96775.84
2023-03-11T07:07:49.891Z,96769.84
2023-03-11T07:10:16.996Z,96766.75
2023-03-11T07:12:43.910Z,96779.16
2023-03-11T07:15:11.297Z,96776.69
2023-03-11T07:17:38.418Z,96776.69
2023-03-11T07:20:05.694Z,96764.72
2023-03-11T07:22:32.390Z,96776.69
2023-03-11T07:24:59.479Z,96787.69
2023-03-11T07:27:27.884Z,96789.00
2023-03-11T07:29:54.652Z,96784.09
2023-03-11T07:32:21.357Z,96789.59
2023-03-11T07:34:48.177Z,96783.34
2023-03-11T07:37:15.563Z,96806.94
2023-03-11T07:39:42.893Z,96801.66
2023-03-11T07:42:09.835Z,96801.56
2023-03-11T07:44:38.112Z,96806.69
2023-03-11T07:47:06.530Z,96803.09
2023-03-11T07:49:35.612Z,96812.44
2023-03-11T07:52:02.628Z,96814.81
2023-03-11T07:54:29.505Z,96834.78
2023-03-11T07:56:56.328Z,96835.63
2023-03-11T07:59:23.049Z,96836.09
2023-03-11T08:01:50.674Z,96838.97
2023-03-11T08:04:17.791Z,96841.25
2023-03-11T08:06:48.126Z,96836.69
2023-03-11T08:09:15.229Z,96842.88
2023-03-11T08:11:42.005Z,96848.41
2023-03-11T08:14:09.010Z,96849.00
2023-03-11T08:16:35.840Z,96847.91
2023-03-11T08:19:03.096Z,96852.69
2023-03-11T08:21:32.273Z,96862.13
2023-03-11T08:24:01.683Z,96860.44
2023-03-11T08:26:29.023Z,96867.97
2023-03-11T08:28:56.773Z,96866.91
2023-03-11T08:31:28.198Z,96865.69
2023-03-11T08:33:58.251Z,96864.25
2023-03-11T08:36:25.216Z,96862.81
2023-03-11T08:38:52.635Z,96866.66
2023-03-11T08:41:19.860Z,96855.72
2023-03-11T08:43:46.415Z,96863.97
2023-03-11T08:46:25.395Z,96862.16
2023-03-11T08:48:52.789Z,96859.03
2023-03-11T08:51:20.047Z,96870.50
2023-03-11T08:53:47.661Z,96868.06
2023-03-11T08:56:14.364Z,96873.75
2023-03-11T08:58:41.050Z,96868.47
2023-03-11T09:01:09.260Z,96868.75
2023-03-11T09:03:36.389Z,96883.59
2023-03-11T09:06:06.316Z,96882.81
2023-03-11T09:08:33.181Z,96886.38
2023-03-11T09:10:59.975Z,96895.19
2023-03-11T09:13:27.541Z,96897.25
2023-03-11T09:15:54.603Z,96897.41
2023-03-11T09:18:21.447Z,96910.47
2023-03-11T09:20:48.478Z,96914.91
2023-03-11T09:23:17.241Z,96916.44
2023-03-11T09:25:44.899Z,96929.63
2023-03-11T09:28:11.699Z,96924.16
2023-03-11T09:30:38.572Z,96928.34
2023-03-11T09:33:06.327Z,96935.38
2023-03-11T09:35:33.436Z,96935.53
2023-03-11T09:38:00.478Z,96945.97
2023-03-11T09:40:33.042Z,96945.28
2023-03-11T09:43:02.754Z,96935.75
2023-03-11T09:45:32.046Z,96935.94
2023-03-11T09:48:12.884Z,96937.31
2023-03-11T09:50:53.774Z,96937.53
2023-03-11T09:53:29.195Z,96942.41
2023-03-11T09:56:00.127Z,96952.44
2023-03-11T09:58:45.798Z,96951.22
2023-03-11T10:01:24.093Z,96948.00
2023-03-11T10:03:55.079Z,96948.03
2023-03-11T10:06:28.742Z,96958.97
2023-03-11T10:09:07.967Z,96958.25
2023-03-11T10:12:09.701Z,96973.63
2023-03-11T10:14:43.002Z,96979.41
2023-03-11T10:17:12.630Z,96983.69
2023-03-11T10:20:02.656Z,96975.44
2023-03-11T10:22:43.532Z,96978.88
2023-03-11T10:25:34.729Z,96992.28
2023-03-11T10:28:01.395Z,96979.75
2023-03-11T10:30:33.854Z,96988.91
2023-03-11T10:33:17.615Z,96976.47
2023-03-11T10:35:48.192Z,96989.41
2023-03-11T10:38:21.610Z,96979.41
2023-03-11T10:40:52.043Z,96975.66
2023-03-11T10:43:51.721Z,96983.91
2023-03-11T10:46:25.714Z,96981.19
2023-03-11T10:48:52.612Z,96984.59
2023-03-11T10:51:25.107Z,96986.34
2023-03-11T10:53:57.921Z,96995.59
2023-03-11T10:56:27.489Z,96994.66
2023-03-11T10:58:55.064Z,96987.28
2023-03-11T11:01:22.587Z,96992.91
2023-03-11T11:03:51.398Z,96983.25
2023-03-11T11:06:25.489Z,96992.91
2023-03-11T11:09:19.346Z,97003.34
2023-03-11T11:12:05.343Z,96990.03
2023-03-11T11:14:50.149Z,96998.44
2023-03-11T11:17:33.067Z,96992.09
2023-03-11T11:20:12.202Z,96987.81
2023-03-11T11:22:47.637Z,97001.03
2023-03-11T11:25:35.958Z,97003.00
2023-03-11T11:28:16.235Z,96999.91
2023-03-11T11:30:57.123Z,96993.50
2023-03-11T11:33:39.326Z,96994.72
2023-03-11T11:36:14.725Z,97005.28
2023-03-11T11:38:41.929Z,96983.19
2023-03-11T11:41:20.198Z,97008.81
2023-03-11T11:43:49.893Z,96998.22
2023-03-11T11:46:19.966Z,97000.50
2023-03-11T11:48:52.089Z,96999.34
2023-03-11T11:51:24.570Z,96999.94
2023-03-11T11:53:57.698Z,97001.75
2023-03-11T11:56:25.830Z,97003.16
2023-03-11T11:58:54.735Z,96990.31
2023-03-11T12:01:44.891Z,96999.56
2023-03-11T12:04:23.851Z,97008.19
2023-03-11T12:06:55.315Z,97009.59
2023-03-11T12:09:46.117Z,97006.41
2023-03-11T12:12:31.670Z,97009.41
2023-03-11T12:15:03.957Z,97018.94
2023-03-11T12:17:33.805Z,97025.53
2023-03-11T12:20:03.185Z,97021.19
2023-03-11T12:22:42.166Z,97025.81
2023-03-11T12:25:09.190Z,97026.75
2023-03-11T12:27:45.474Z,97031.97
2023-03-11T12:30:30.288Z,97017.47
2023-03-11T12:33:05.445Z,97039.00
2023-03-11T12:35:35.484Z,97029.31
2023-03-11T12:38:25.434Z,97014.81
2023-03-11T12:40:59.504Z,97037.78
2023-03-11T12:43:30.575Z,97031.75
2023-03-11T12:46:01.317Z,97033.81
2023-03-11T12:48:27.988Z,97036.72
2023-03-11T12:50:55.376Z,97040.91
2023-03-11T12:53:42.909Z,97041.88
2023-03-11T12:56:24.895Z,97041.50
2023-03-11T12:59:12.315Z,97033.78
2023-03-11T13:01:55.158Z,97046.66
2023-03-11T13:04:41.460Z,97043.19
2023-03-11T13:08:01.335Z,97050.78
2023-03-11T13:10:46.215Z,97066.41
2023-03-11T13:13:26.330Z,97058.69
2023-03-11T13:15:55.061Z,97061.56
2023-03-11T13:18:27.084Z,97071.44
2023-03-11T13:21:04.879Z,97072.41
2023-03-11T13:23:40.478Z,97088.03
2023-03-11T13:26:09.961Z,97085.19
2023-03-11T13:29:03.954Z,97090.25
2023-03-11T13:31:33.417Z,97087.53
2023-03-11T13:34:37.113Z,97106.75
2023-03-11T13:37:04.660Z,97114.00
2023-03-11T13:40:14.017Z,97120.47
2023-03-11T13:42:50.029Z,97113.03
2023-03-11T13:45:27.470Z,97119.56
2023-03-11T13:47:58.850Z,97117.34
2023-03-11T13:50:34.660Z,97113.38
2023-03-11T13:53:06.971Z,97121.94
2023-03-11T13:55:45.208Z,97121.66
2023-03-11T13:58:27.179Z,97134.94
2023-03-11T14:00:57.047Z,97127.13
2023-03-11T14:03:25.820Z,97132.97
2023-03-11T14:06:03.017Z,97139.44
2023-03-11T14:08:35.261Z,97153.31
2023-03-11T14:11:10.371Z,97154.97
2023-03-11T14:13:49.960Z,97144.34
2023-03-11T14:16:30.483Z,97149.09
2023-03-11T14:19:15.581Z,97159.88
2023-03-11T14:21:46.934Z,97156.72
2023-03-11T14:24:19.466Z,97157.50
2023-03-11T14:26:48.718Z,97155.47
2023-03-11T14:29:20.863Z,97157.31
2023-03-11T14:31:47.850Z,97167.06
2023-03-11T14:34:19.922Z,97176.19
2023-03-11T14:36:54.002Z,97178.78
2023-03-11T14:39:29.687Z,97175.66
2023-03-11T14:42:29.444Z,97183.97
2023-03-11T14:45:05.267Z,97185.31
2023-03-11T14:47:32.004Z,97189.41
2023-03-11T14:49:59.627Z,97185.88
2023-03-11T14:52:35.514Z,97187.00
2023-03-11T14:55:04.558Z,97194.81
2023-03-11T14:57:45.900Z,97201.84
2023-03-11T15:00:21.588Z,97201.63
2023-03-11T15:02:58.886Z,97203.50
2023-03-11T15:05:47.651Z,97197.97
2023-03-11T15:08:18.872Z,97201.13
2023-03-11T15:11:07.880Z,97204.63
2023-03-11T15:13:36.306Z,97203.94
2023-03-11T15:16:06.569Z,97219.22
2023-03-11T15:18:39.100Z,97224.84
2023-03-11T15:21:07.549Z,97218.69
2023-03-11T15:23:36.239Z,97224.75
2023-03-11T15:26:04.260Z,97229.84
2023-03-11T15:28:32.665Z,97232.28
2023-03-11T15:31:22.242Z,97241.13
2023-03-11T15:33:51.666Z,97248.41
2023-03-11T15:36:32.157Z,97262.44
2023-03-11T15:39:32.642Z,97271.00
2023-03-11T15:42:02.154Z,97278.16
2023-03-11T15:44:53.785Z,97287.81
2023-03-11T15:47:22.813Z,97283.09
2023-03-11T15:49:51.085Z,97289.78
2023-03-11T15:52:19.862Z,97297.91
2023-03-11T15:54:54.979Z,97290.06
2023-03-11T15:57:27.735Z,97315.06
2023-03-11T15:59:56.303Z,97311.31
2023-03-11T16:02:29.169Z,97315.34
2023-03-11T16:04:57.645Z,97328.63
2023-03-11T16:07:38.704Z,97308.66
2023-03-11T16:10:10.585Z,97324.78
2023-03-11T16:12:37.970Z,97320.75
2023-03-11T16:15:06.069Z,97344.50
2023-03-11T16:17:48.548Z,97343.56
2023-03-11T16:20:16.160Z,97351.41
2023-03-11T16:22:42.972Z,97355.53
2023-03-11T16:25:20.393Z,97344.56
2023-03-11T16:27:48.219Z,97363.84
2023-03-11T16:30:16.432Z,97353.88
2023-03-11T16:32:43.906Z,97373.19
2023-03-11T16:35:11.925Z,97380.91
2023-03-11T16:37:39.884Z,97376.09
2023-03-11T16:40:07.274Z,97393.91
2023-03-11T16:42:33.976Z,97403.00
2023-03-11T16:45:03.470Z,97401.69
2023-03-11T16:47:30.844Z,97407.84
2023-03-11T16:50:02.184Z,97419.47
2023-03-11T16:52:38.503Z,97423.66
2023-03-11T16:55:11.661Z,97431.19
2023-03-11T16:57:39.630Z,97431.53
2023-03-11T17:00:10.189Z,97448.75
2023-03-11T17:02:37.590Z,97446.69
2023-03-11T17:05:06.206Z,97453.63
2023-03-11T17:07:33.588Z,97465.06
2023-03-11T17:10:00.916Z,97471.31
2023-03-11T17:12:27.874Z,97475.63
2023-03-11T17:14:55.051Z,97486.75
2023-03-11T17:17:21.961Z,97491.59
2023-03-11T17:19:49.097Z,97503.66
2023-03-11T17:22:17.375Z,97513.16
2023-03-11T17:24:44.974Z,97520.22
2023-03-11T17:27:12.169Z,97527.72
2023-03-11T17:29:39.068Z,97536.03
2023-03-11T17:32:07.440Z,97542.03
2023-03-11T17:34:35.395Z,97551.09
2023-03-11T17:37:03.437Z,97556.78
2023-03-11T17:39:30.141Z,97562.47
2023-03-11T17:41:56.938Z,97565.44
2023-03-11T17:44:23.714Z,97567.81
2023-03-11T17:46:50.626Z,97589.94
2023-03-11T17:49:17.423Z,97585.59
2023-03-11T17:51:44.143Z,97598.31
2023-03-11T17:54:11.134Z,97613.81
2023-03-11T17:56:37.915Z,97607.72
2023-03-11T17:59:04.627Z,97621.81
2023-03-11T18:01:31.600Z,97618.56
2023-03-11T18:03:58.419Z,97619.78
2023-03-11T18:06:25.411Z,97627.16
2023-03-11T18:08:53.004Z,97636.38
2023-03-11T18:11:22.625Z,97635.19
2023-03-11T18:13:50.123Z,97639.06
2023-03-11T18:16:24.908Z,97642.94
2023-03-11T18:18:52.361Z,97647.94
2023-03-11T18:21:20.481Z,97655.38
2023-03-11T18:23:47.947Z,97654.78
2023-03-11T18:26:17.442Z,97668.41
2023-03-11T18:28:44.193Z,97670.84
2023-03-11T18:31:18.319Z,97677.53
2023-03-11T18:33:54.594Z,97677.16
2023-03-11T18:36:27.213Z,97687.28
2023-03-11T18:38:55.541Z,97682.41
2023-03-11T18:41:22.913Z,97684.66
2023-03-11T18:43:54.354Z,97696.25
2023-03-11T18:46:21.299Z,97690.44
2023-03-11T18:48:48.074Z,97694.38
2023-03-11T18:51:15.368Z,97701.56
2023-03-11T18:53:42.992Z,97712.28
2023-03-11T18:56:13.581Z,97708.16
2023-03-11T18:58:40.332Z,97704.28
2023-03-11T19:01:20.792Z,97715.69
2023-03-11T19:03:56.336Z,97720.19
2023-03-11T19:06:24.738Z,97709.38
2023-03-11T19:08:52.440Z,97716.13
2023-03-11T19:11:21.468Z,97708.69
2023-03-11T19:13:48.686Z,97728.44
2023-03-11T19:16:18.927Z,97732.06
2023-03-11T19:18:46.027Z,97734.94
2023-03-11T19:21:14.830Z,97741.41
2023-03-11T19:23:41.879Z,97708.78
2023-03-11T19:26:08.927Z,97737.94
2023-03-11T19:28:35.981Z,97747.00
2023-03-11T19:31:03.921Z,97752.25
2023-03-11T19:33:30.829Z,97747.13
2023-03-11T19:36:00.342Z,97755.72
2023-03-11T19:38:27.657Z,97761.50
2023-03-11T19:40:54.847Z,97767.75
2023-03-11T19:43:21.593Z,97769.03
2023-03-11T19:45:50.525Z,97772.91
2023-03-11T19:48:17.793Z,97749.53
2023-03-11T19:50:44.603Z,97777.97
2023-03-11T19:53:11.443Z,97782.38
2023-03-11T19:55:43.210Z,97785.59
2023-03-11T19:58:10.363Z,97786.38
2023-03-11T20:00:37.086Z,97782.88
2023-03-11T20:03:03.833Z,97778.56
2023-03-11T20:05:30.930Z,97793.53
2023-03-11T20:07:58.041Z,97797.28
2023-03-11T20:10:25.201Z,97801.69
2023-03-11T20:13:01.689Z,97805.22
2023-03-11T20:15:30.156Z,97814.19
2023-03-11T20:17:57.095Z,97794.78
2023-03-11T20:20:23.864Z,97815.34
2023-03-11T20:22:50.588Z,97816.44
2023-03-11T20:25:17.464Z,97826.16
2023-03-11T20:27:44.265Z,97832.56
2023-03-11T20:30:11.834Z,97837.97
2023-03-11T20:32:38.751Z,97843.59
2023-03-11T20:35:07.587Z,97848.22
2023-03-11T20:37:34.584Z,97818.19
2023-03-11T20:40:01.371Z,97846.25
2023-03-11T20:42:28.085Z,97858.50
2023-03-11T20:44:56.321Z,97843.63
2023-03-11T20:47:23.106Z,97871.28
2023-03-11T20:49:49.889Z,97868.75
2023-03-11T20:52:18.205Z,97855.16
2023-03-11T20:54:45.202Z,97862.97
2023-03-11T20:57:13.302Z,97851.94
2023-03-11T20:59:43.062Z,97851.47
2023-03-11T21:02:12.347Z,97845.97
2023-03-11T21:04:41.489Z,97862.31
2023-03-11T21:07:08.654Z,97857.16
2023-03-11T21:09:36.198Z,97856.59
2023-03-11T21:12:04.261Z,97844.94
2023-03-11T21:14:31.818Z,97847.50
2023-03-11T21:17:01.025Z,97842.41
2023-03-11T21:19:28.628Z,97865.28
2023-03-11T21:21:55.857Z,97864.44
2023-03-11T21:24:23.633Z,97871.56
2023-03-11T21:26:50.784Z,97862.28
2023-03-11T21:29:17.806Z,97879.31
2023-03-11T21:31:44.947Z,97886.38
2023-03-11T21:34:12.065Z,97885.47
2023-03-11T21:36:38.940Z,97874.78
2023-03-11T21:39:06.491Z,97896.09
2023-03-11T21:41:33.705Z,97904.94
2023-03-11T21:44:01.154Z,97894.75
2023-03-11T21:46:31.268Z,97912.31
2023-03-11T21:48:59.970Z,97912.44
2023-03-11T21:51:28.178Z,97911.69
2023-03-11T21:53:56.393Z,97917.75
2023-03-11T21:56:23.439Z,97930.06
2023-03-11T21:58:50.263Z,97930.00
2023-03-11T22:01:17.091Z,97939.75
2023-03-11T22:03:44.231Z,97939.63
2023-03-11T22:06:12.685Z,97936.22
2023-03-11T22:08:40.319Z,97925.56
2023-03-11T22:11:09.951Z,97953.75
2023-03-11T22:13:36.941Z,97952.13
2023-03-11T22:16:06.707Z,97945.22
2023-03-11T22:18:33.625Z,97942.66
2023-03-11T22:21:00.958Z,97944.56
2023-03-11T22:23:27.658Z,97952.41
2023-03-11T22:25:54.368Z,97961.41
2023-03-11T22:28:21.266Z,97958.06
2023-03-11T22:30:48.156Z,97960.81
2023-03-11T22:33:15.220Z,97963.38
2023-03-11T22:35:49.380Z,97962.38
2023-03-11T22:38:16.215Z,97966.69
2023-03-11T22:40:42.934Z,97977.28
2023-03-11T22:43:09.762Z,97989.41
2023-03-11T22:45:36.514Z,97974.13
2023-03-11T22:48:03.839Z,97990.31
2023-03-11T22:50:30.704Z,98001.78
2023-03-11T22:52:57.531Z,97991.50
2023-03-11T22:55:24.396Z,97994.16
2023-03-11T22:57:51.204Z,97990.81
2023-03-11T23:00:21.748Z,97978.19
2023-03-11T23:02:53.376Z,97979.97
2023-03-11T23:05:20.889Z,97971.47
2023-03-11T23:07:47.992Z,97993.81
2023-03-11T23:10:15.653Z,98010.34
2023-03-11T23:12:42.629Z,98008.00
2023-03-11T23:15:12.577Z,98009.91
2023-03-11T23:17:39.508Z,98019.44
2023-03-11T23:20:10.416Z,98014.34
2023-03-11T23:22:38.988Z,98016.25
2023-03-11T23:25:08.460Z,98014.53
2023-03-11T23:27:35.245Z,98016.56
2023-03-11T23:30:02.158Z,98011.78
2023-03-11T23:32:29.681Z,98016.97
2023-03-11T23:34:56.404Z,98026.47
2023-03-11T23:37:23.790Z,98028.19
2023-03-11T23:39:50.564Z,98030.94
2023-03-11T23:42:25.335Z,98044.09
2023-03-11T23:44:52.581Z,98041.47
2023-03-11T23:47:19.432Z,98041.63
2023-03-11T23:49:46.190Z,98048.56
2023-03-11T23:52:12.862Z,98059.03
2023-03-11T23:54:39.543Z,98044.47
2023-03-11T23:57:06.349Z,98052.13
2023-03-11T23:59:33.060Z,98055.53
